Time;durP1;ratioP1;P1;durP2;ratioP2;P2;SDS_P1;SDS_P2;PMS_P1;PMS_P2;Temp;Humidity;BMP_temperature;BMP_pressure;BME280_temperature;BME280_humidity;BME280_pressure;Samples;Min_cycle;Max_cycle;Signal;HPM_P1;HPM_P2
2020/12/25 00:01:20;;;;;;;3.37;1.43;;;;;;;5.00;100.00;95661.13;4991588;28;20753;-73
2020/12/25 00:03:47;;;;;;;3.93;2.13;;;;;;;4.98;100.00;95656.06;4992209;28;20206;-73
2020/12/25 00:06:13;;;;;;;3.30;1.60;;;;;;;4.92;100.00;95661.91;4992949;28;20206;-73
2020/12/25 00:08:39;;;;;;;3.20;1.57;;;;;;;4.98;100.00;95670.91;4994490;28;20217;-71
2020/12/25 00:11:05;;;;;;;5.13;2.07;;;;;;;4.94;100.00;95680.84;4997388;28;20221;-71
2020/12/25 00:13:31;;;;;;;3.27;1.83;;;;;;;4.90;100.00;95682.13;4995655;28;20238;-71
2020/12/25 00:15:57;;;;;;;0.90;0.80;;;;;;;4.72;100.00;95679.75;4998446;28;20232;-71
2020/12/25 00:18:23;;;;;;;0.50;0.50;;;;;;;4.58;100.00;95678.56;4999908;28;20692;-71
2020/12/25 00:20:51;;;;;;;2.20;1.30;;;;;;;4.49;100.00;95678.63;5000958;28;20202;-71
2020/12/25 00:23:17;;;;;;;0.97;0.67;;;;;;;4.35;100.00;95687.03;4999143;28;20224;-71
2020/12/25 00:25:43;;;;;;;1.33;1.07;;;;;;;4.22;100.00;95694.44;4998129;28;20268;-71
2020/12/25 00:28:09;;;;;;;0.83;0.60;;;;;;;4.15;100.00;95697.78;4997385;28;20214;-71
2020/12/25 00:30:35;;;;;;;0.60;0.60;;;;;;;4.03;100.00;95706.81;4995422;28;20301;-71
2020/12/25 00:33:01;;;;;;;0.60;0.60;;;;;;;3.85;100.00;95719.06;4995789;28;20241;-71
2020/12/25 00:35:27;;;;;;;0.80;0.70;;;;;;;3.70;100.00;95728.34;4997789;28;20253;-71
2020/12/25 00:37:54;;;;;;;0.40;0.40;;;;;;;3.59;100.00;95718.16;4998457;28;20213;-71
2020/12/25 00:40:21;;;;;;;0.47;0.47;;;;;;;3.52;100.00;95724.09;5000157;28;20233;-70
2020/12/25 00:42:47;;;;;;;0.50;0.50;;;;;;;3.36;100.00;95729.09;4998730;28;20253;-71
2020/12/25 00:45:12;;;;;;;0.40;0.40;;;;;;;3.35;100.00;95735.31;4998930;28;20529;-71
2020/12/25 00:47:38;;;;;;;1.50;0.50;;;;;;;3.37;100.00;95730.75;5000903;28;20211;-71
2020/12/25 00:50:04;;;;;;;0.50;0.50;;;;;;;3.28;100.00;95729.03;5000295;28;20261;-71
2020/12/25 00:52:30;;;;;;;1.60;0.47;;;;;;;3.15;100.00;95746.78;4999650;28;20288;-71
2020/12/25 00:54:57;;;;;;;0.53;0.40;;;;;;;3.13;100.00;95754.72;4998245;28;20210;-71
2020/12/25 00:57:23;;;;;;;0.93;0.43;;;;;;;3.06;100.00;95760.66;4997770;28;20561;-71
2020/12/25 00:59:49;;;;;;;0.50;0.50;;;;;;;2.95;100.00;95766.03;4998562;28;21023;-71
2020/12/25 01:02:15;;;;;;;0.40;0.40;;;;;;;2.89;100.00;95768.38;4996081;28;20227;-71
2020/12/25 01:04:41;;;;;;;0.40;0.40;;;;;;;2.81;100.00;95769.06;4996751;28;20213;-71
2020/12/25 01:07:08;;;;;;;0.40;0.40;;;;;;;2.77;100.00;95793.75;4997129;28;20210;-71
2020/12/25 01:09:35;;;;;;;0.40;0.40;;;;;;;2.59;100.00;95808.41;4998740;28;20678;-71
2020/12/25 01:12:02;;;;;;;1.53;0.73;;;;;;;2.41;100.00;95802.28;4999427;28;20234;-71
2020/12/25 01:14:29;;;;;;;0.77;0.60;;;;;;;2.38;100.00;95813.94;4999937;28;20206;-71
2020/12/25 01:16:56;;;;;;;0.63;0.40;;;;;;;2.34;100.00;95817.75;4998600;28;20278;-71
2020/12/25 01:19:22;;;;;;;0.30;0.30;;;;;;;2.38;100.00;95816.53;4999966;28;20573;-71
2020/12/25 01:21:48;;;;;;;1.63;0.80;;;;;;;2.35;100.00;95820.22;4998951;28;20227;-71
2020/12/25 01:24:14;;;;;;;0.77;0.50;;;;;;;2.41;100.00;95832.69;4999645;28;20703;-71
2020/12/25 01:26:40;;;;;;;0.50;0.40;;;;;;;2.39;100.00;95831.97;4998281;28;20256;-71
2020/12/25 01:29:07;;;;;;;0.30;0.30;;;;;;;2.47;100.00;95840.75;4998713;28;20206;-71
2020/12/25 01:31:33;;;;;;;0.30;0.30;;;;;;;2.47;100.00;95851.16;4998498;28;20268;-71
2020/12/25 01:33:59;;;;;;;0.30;0.30;;;;;;;2.40;100.00;95853.63;4998608;28;20206;-71
2020/12/25 01:36:25;;;;;;;0.40;0.40;;;;;;;2.38;100.00;95861.56;4996930;28;20230;-71
2020/12/25 01:38:52;;;;;;;0.30;0.30;;;;;;;2.49;100.00;95864.81;4998696;28;20816;-71
2020/12/25 01:41:18;;;;;;;0.40;0.40;;;;;;;2.54;100.00;95867.81;4998140;28;20281;-71
2020/12/25 01:43:44;;;;;;;0.30;0.30;;;;;;;2.52;100.00;95874.13;4998276;28;20340;-71
2020/12/25 01:46:12;;;;;;;0.50;0.30;;;;;;;2.62;100.00;95874.94;4996968;28;20202;-71
2020/12/25 01:48:38;;;;;;;0.23;0.23;;;;;;;2.59;100.00;95881.25;4998133;28;20202;-72
2020/12/25 01:51:05;;;;;;;0.60;0.30;;;;;;;2.66;100.00;95882.34;4999030;28;20257;-71
2020/12/25 01:53:33;;;;;;;0.30;0.30;;;;;;;2.79;100.00;95893.28;4998471;28;20203;-72
2020/12/25 01:56:01;;;;;;;0.20;0.20;;;;;;;2.72;100.00;95894.78;4997408;28;20233;-71
2020/12/25 01:58:29;;;;;;;0.30;0.30;;;;;;;2.75;100.00;95906.69;4998190;28;20214;-71
2020/12/25 02:00:55;;;;;;;0.40;0.30;;;;;;;2.73;100.00;95916.44;4999199;28;20306;-71
2020/12/25 02:03:21;;;;;;;0.30;0.30;;;;;;;2.69;100.00;95918.47;4998576;28;20206;-71
2020/12/25 02:05:47;;;;;;;0.30;0.30;;;;;;;2.80;100.00;95928.75;4998165;28;20206;-71
2020/12/25 02:08:15;;;;;;;0.30;0.30;;;;;;;2.83;100.00;95933.66;4996343;28;20284;-71
2020/12/25 02:10:42;;;;;;;0.30;0.30;;;;;;;2.79;100.00;95947.06;4995610;28;20206;-71
2020/12/25 02:13:09;;;;;;;0.30;0.30;;;;;;;2.75;100.00;95943.09;4995757;28;20253;-71
2020/12/25 02:15:35;;;;;;;0.40;0.37;;;;;;;2.74;100.00;95938.88;4996729;28;20215;-72
2020/12/25 02:18:02;;;;;;;0.30;0.30;;;;;;;2.80;100.00;95946.97;4996781;28;20677;-72
2020/12/25 02:20:29;;;;;;;0.30;0.30;;;;;;;2.65;100.00;95956.13;4997358;28;20561;-71
2020/12/25 02:22:56;;;;;;;0.30;0.30;;;;;;;2.85;100.00;95952.59;4998073;28;20226;-72
2020/12/25 02:25:22;;;;;;;0.30;0.30;;;;;;;2.80;100.00;95970.38;4995620;28;20662;-72
2020/12/25 02:27:48;;;;;;;0.40;0.30;;;;;;;2.66;100.00;95970.78;4996850;28;20195;-72
2020/12/25 02:30:14;;;;;;;0.53;0.40;;;;;;;2.75;100.00;95967.38;4997565;28;20206;-72
2020/12/25 02:32:40;;;;;;;0.83;0.47;;;;;;;2.71;100.00;95976.41;4997401;28;20313;-71
2020/12/25 02:35:07;;;;;;;0.37;0.37;;;;;;;2.76;100.00;95975.97;4997282;28;20213;-72
2020/12/25 02:37:33;;;;;;;0.50;0.40;;;;;;;2.72;100.00;95972.00;4998225;28;20222;-72
2020/12/25 02:39:59;;;;;;;0.40;0.40;;;;;;;2.85;100.00;95975.16;4998391;28;20206;-72
2020/12/25 02:42:26;;;;;;;0.30;0.30;;;;;;;2.77;100.00;95983.63;4998240;28;20219;-72
2020/12/25 02:44:52;;;;;;;0.50;0.50;;;;;;;2.74;100.00;95988.31;4998210;28;20682;-72
2020/12/25 02:47:18;;;;;;;0.40;0.40;;;;;;;2.76;100.00;95995.03;4997727;28;20209;-72
2020/12/25 02:49:43;;;;;;;0.67;0.50;;;;;;;2.81;100.00;95998.00;4998016;28;20618;-72
2020/12/25 02:52:09;;;;;;;0.53;0.40;;;;;;;2.82;100.00;95997.06;4998415;28;20673;-72
2020/12/25 02:54:35;;;;;;;0.50;0.50;;;;;;;2.65;100.00;96000.34;4997875;28;20206;-72
2020/12/25 02:57:02;;;;;;;0.80;0.40;;;;;;;2.77;100.00;95999.25;4997177;28;20242;-72
2020/12/25 02:59:28;;;;;;;0.50;0.40;;;;;;;2.79;100.00;95997.34;4998509;28;20217;-72
2020/12/25 03:01:54;;;;;;;0.50;0.50;;;;;;;2.63;100.00;95997.03;4997727;28;20242;-72
2020/12/25 03:04:20;;;;;;;0.43;0.43;;;;;;;2.72;100.00;96000.63;4997738;28;20198;-72
2020/12/25 03:06:47;;;;;;;0.70;0.60;;;;;;;2.82;100.00;96006.66;4997972;28;20232;-72
2020/12/25 03:09:13;;;;;;;1.70;0.50;;;;;;;2.75;100.00;96010.75;4998047;28;20206;-72
2020/12/25 03:11:39;;;;;;;0.60;0.50;;;;;;;2.79;100.00;96012.97;4997463;28;20222;-72
2020/12/25 03:14:06;;;;;;;0.50;0.50;;;;;;;2.82;100.00;96017.88;4998480;28;20205;-72
2020/12/25 03:16:32;;;;;;;0.40;0.40;;;;;;;2.85;100.00;96016.78;4997271;28;21188;-71
2020/12/25 03:18:58;;;;;;;0.60;0.60;;;;;;;2.77;100.00;96020.06;4998300;28;20226;-71
2020/12/25 03:21:25;;;;;;;1.17;0.53;;;;;;;2.63;100.00;96023.03;4997634;28;20222;-72
2020/12/25 03:23:50;;;;;;;0.50;0.50;;;;;;;2.53;100.00;96037.84;4998461;28;20206;-72
2020/12/25 03:26:16;;;;;;;0.47;0.47;;;;;;;2.51;100.00;96039.72;4996363;28;20252;-71
2020/12/25 03:28:43;;;;;;;0.50;0.50;;;;;;;2.36;100.00;96045.44;4996049;28;20206;-72
2020/12/25 03:31:10;;;;;;;0.60;0.60;;;;;;;2.46;100.00;96046.31;4997380;28;20214;-71
2020/12/25 03:33:36;;;;;;;0.67;0.67;;;;;;;2.45;100.00;96052.44;4997307;28;20874;-71
2020/12/25 03:36:02;;;;;;;0.50;0.50;;;;;;;2.44;100.00;96058.59;4997377;28;20226;-72
2020/12/25 03:38:28;;;;;;;0.40;0.40;;;;;;;2.43;100.00;96057.78;4997655;28;20279;-71
2020/12/25 03:40:54;;;;;;;2.10;0.70;;;;;;;2.40;100.00;96065.81;4997812;28;21162;-72
2020/12/25 03:43:20;;;;;;;0.97;0.50;;;;;;;2.42;100.00;96069.13;4997400;28;20199;-72
2020/12/25 03:45:46;;;;;;;0.67;0.60;;;;;;;2.38;100.00;96066.94;4997102;28;20766;-71
2020/12/25 03:48:13;;;;;;;0.93;0.60;;;;;;;2.40;100.00;96061.59;4997205;28;20280;-71
2020/12/25 03:50:39;;;;;;;0.40;0.40;;;;;;;2.35;100.00;96074.19;4997899;28;20207;-71
2020/12/25 03:53:05;;;;;;;0.70;0.40;;;;;;;2.39;100.00;96067.75;4997550;28;20798;-71
2020/12/25 03:55:31;;;;;;;1.33;0.50;;;;;;;2.34;100.00;96075.94;4997059;28;21063;-71
2020/12/25 03:57:57;;;;;;;0.60;0.50;;;;;;;2.34;100.00;96073.34;4996940;28;20207;-72
2020/12/25 04:00:23;;;;;;;0.40;0.40;;;;;;;2.38;100.00;96079.09;4997636;28;20241;-71
2020/12/25 04:02:49;;;;;;;0.30;0.30;;;;;;;2.35;100.00;96084.56;4996903;28;20724;-71
2020/12/25 04:05:16;;;;;;;0.50;0.50;;;;;;;2.29;100.00;96085.09;4996730;28;20206;-71
2020/12/25 04:07:42;;;;;;;0.57;0.57;;;;;;;2.38;100.00;96092.09;4997092;28;20980;-71
2020/12/25 04:10:08;;;;;;;0.50;0.50;;;;;;;2.43;100.00;96088.16;4997232;28;20268;-71
2020/12/25 04:12:34;;;;;;;0.63;0.60;;;;;;;2.31;100.00;96089.19;4996710;28;20226;-71
2020/12/25 04:15:00;;;;;;;0.70;0.70;;;;;;;2.40;100.00;96088.41;4996939;28;20210;-71
2020/12/25 04:17:26;;;;;;;0.50;0.50;;;;;;;2.36;100.00;96094.03;4997242;28;20230;-71
2020/12/25 04:19:52;;;;;;;0.70;0.70;;;;;;;2.40;100.00;96092.81;4997135;28;20229;-71
2020/12/25 04:22:19;;;;;;;1.00;0.90;;;;;;;2.37;100.00;96099.09;4996345;28;20697;-71
2020/12/25 04:24:45;;;;;;;0.77;0.70;;;;;;;2.42;100.00;96102.94;4998134;28;20685;-72
2020/12/25 04:27:11;;;;;;;1.33;0.90;;;;;;;2.43;100.00;96111.53;4996315;28;20233;-71
2020/12/25 04:29:37;;;;;;;0.73;0.73;;;;;;;2.40;100.00;96120.44;4996777;28;20211;-71
2020/12/25 04:32:03;;;;;;;1.30;1.07;;;;;;;2.41;100.00;96116.06;4997597;28;20819;-71
2020/12/25 04:34:29;;;;;;;2.57;0.90;;;;;;;2.48;100.00;96112.81;4997015;28;20249;-72
2020/12/25 04:36:55;;;;;;;0.77;0.70;;;;;;;2.46;100.00;96119.91;4996421;28;20227;-72
2020/12/25 04:39:22;;;;;;;0.77;0.77;;;;;;;2.44;100.00;96121.84;4996659;28;20206;-71
2020/12/25 04:41:48;;;;;;;0.70;0.70;;;;;;;2.45;100.00;96128.66;4997217;28;20227;-71
2020/12/25 04:44:14;;;;;;;1.37;0.70;;;;;;;2.46;100.00;96122.50;4996878;28;20203;-71
2020/12/25 04:46:41;;;;;;;0.70;0.67;;;;;;;2.50;100.00;96130.88;4996226;28;20202;-71
2020/12/25 04:49:08;;;;;;;0.60;0.60;;;;;;;2.42;100.00;96139.34;4996816;28;20203;-71
2020/12/25 04:51:34;;;;;;;0.70;0.70;;;;;;;2.40;100.00;96132.63;4996567;28;20235;-71
2020/12/25 04:54:00;;;;;;;0.70;0.70;;;;;;;2.52;100.00;96134.16;4996761;28;20328;-72
2020/12/25 04:56:27;;;;;;;1.40;1.00;;;;;;;2.53;100.00;96122.81;4996638;28;20714;-71
2020/12/25 04:58:54;;;;;;;1.87;0.90;;;;;;;2.54;100.00;96127.88;5000673;28;20206;-71
2020/12/25 05:01:20;;;;;;;1.20;1.00;;;;;;;2.45;100.00;96139.06;4999906;28;20230;-71
2020/12/25 05:03:46;;;;;;;1.00;1.00;;;;;;;2.52;100.00;96142.81;5000898;28;20202;-71
2020/12/25 05:06:14;;;;;;;0.70;0.60;;;;;;;2.50;100.00;96138.69;5000020;28;20198;-71
2020/12/25 05:08:41;;;;;;;1.13;0.97;;;;;;;2.44;100.00;96153.03;5000326;28;20226;-71
2020/12/25 05:11:08;;;;;;;0.70;0.70;;;;;;;2.43;100.00;96146.19;5000499;28;20209;-71
2020/12/25 05:13:40;;;;;;;0.97;0.90;;;;;;;2.48;100.00;96149.22;5000365;28;20202;-71
2020/12/25 05:16:06;;;;;;;1.47;1.20;;;;;;;2.51;100.00;96148.16;4999444;28;20226;-71
2020/12/25 05:18:32;;;;;;;1.40;1.07;;;;;;;2.49;100.00;96156.03;5000058;28;20307;-71
2020/12/25 05:20:59;;;;;;;1.47;1.30;;;;;;;2.56;100.00;96166.78;5000050;28;20210;-72
2020/12/25 05:23:31;;;;;;;1.20;1.00;;;;;;;2.47;100.00;96168.38;4999871;28;20202;-71
2020/12/25 05:25:59;;;;;;;0.70;0.70;;;;;;;2.52;100.00;96174.00;4999589;28;20666;-71
2020/12/25 05:28:27;;;;;;;1.20;1.10;;;;;;;2.51;100.00;96174.97;5000068;28;20257;-71
2020/12/25 05:30:55;;;;;;;0.70;0.70;;;;;;;2.50;100.00;96177.69;4998689;28;20238;-71
2020/12/25 05:33:21;;;;;;;1.73;1.10;;;;;;;2.53;100.00;96173.06;4999463;28;20210;-71
2020/12/25 05:35:53;;;;;;;1.17;1.00;;;;;;;2.49;100.00;96176.84;4999764;28;20218;-71
2020/12/25 05:38:19;;;;;;;1.10;0.90;;;;;;;2.43;100.00;96180.00;5001398;28;20230;-71
2020/12/25 05:40:45;;;;;;;1.03;0.93;;;;;;;2.47;100.00;96183.97;4999379;28;20213;-71
2020/12/25 05:43:15;;;;;;;1.47;1.20;;;;;;;2.42;100.00;96180.94;4999676;28;20223;-71
2020/12/25 05:45:41;;;;;;;1.07;0.90;;;;;;;2.51;100.00;96182.75;4999229;28;20309;-71
2020/12/25 05:48:08;;;;;;;1.10;1.00;;;;;;;2.46;100.00;96184.91;5000267;28;20237;-71
2020/12/25 05:50:35;;;;;;;1.43;1.20;;;;;;;2.51;100.00;96185.38;4998736;28;20221;-71
2020/12/25 05:53:01;;;;;;;1.10;1.00;;;;;;;2.49;100.00;96186.44;5000023;28;20237;-71
2020/12/25 05:55:27;;;;;;;1.13;1.03;;;;;;;2.48;100.00;96192.59;4998764;28;21153;-71
2020/12/25 05:57:55;;;;;;;1.43;1.30;;;;;;;2.53;100.00;96193.03;4999091;28;20288;-71
2020/12/25 06:00:22;;;;;;;2.13;1.20;;;;;;;2.52;100.00;96192.22;4999305;28;20198;-71
2020/12/25 06:02:49;;;;;;;1.77;1.30;;;;;;;2.56;100.00;96192.78;4998782;28;20231;-71
2020/12/25 06:05:17;;;;;;;3.43;2.00;;;;;;;2.54;100.00;96190.28;4998352;28;20219;-71
2020/12/25 06:07:48;;;;;;;1.20;1.00;;;;;;;2.59;100.00;96187.31;4999161;28;20289;-72
2020/12/25 06:10:17;;;;;;;1.70;1.40;;;;;;;2.60;100.00;96191.56;4999280;28;20234;-71
2020/12/25 06:12:43;;;;;;;2.93;1.70;;;;;;;2.73;100.00;96200.78;4998668;28;21076;-71
2020/12/25 06:15:11;;;;;;;1.50;1.30;;;;;;;2.68;100.00;96205.56;4998179;28;20209;-71
2020/12/25 06:17:40;;;;;;;1.43;1.27;;;;;;;2.63;100.00;96212.91;4998732;28;20322;-71
2020/12/25 06:20:11;;;;;;;1.77;1.20;;;;;;;2.65;100.00;96208.44;4999237;28;20205;-71
2020/12/25 06:22:41;;;;;;;1.43;1.20;;;;;;;2.71;100.00;96212.28;4998559;28;20234;-71
2020/12/25 06:25:09;;;;;;;2.93;2.10;;;;;;;2.76;100.00;96220.50;4998387;28;20203;-71
2020/12/25 06:27:36;;;;;;;2.07;1.67;;;;;;;2.76;100.00;96220.50;4998540;28;20674;-71
2020/12/25 06:30:04;;;;;;;1.73;1.57;;;;;;;2.78;100.00;96219.44;4998168;28;20202;-71
2020/12/25 06:32:32;;;;;;;1.60;1.40;;;;;;;2.80;100.00;96217.53;4998918;28;20237;-72
2020/12/25 06:35:00;;;;;;;2.13;1.70;;;;;;;2.66;100.00;96217.88;4998683;28;20821;-72
2020/12/25 06:37:28;;;;;;;3.90;1.70;;;;;;;2.58;100.00;96217.72;4997825;28;20225;-72
2020/12/25 06:39:57;;;;;;;2.97;1.53;;;;;;;2.59;100.00;96216.72;4998956;28;20210;-72
2020/12/25 06:42:24;;;;;;;2.13;1.73;;;;;;;2.58;100.00;96214.28;4998191;28;20233;-72
2020/12/25 06:44:51;;;;;;;2.67;1.80;;;;;;;2.54;100.00;96221.50;4998583;28;20210;-72
2020/12/25 06:47:30;;;;;;;2.20;1.80;;;;;;;2.53;100.00;96225.06;4997576;28;20202;-72
2020/12/25 06:49:57;;;;;;;2.20;1.60;;;;;;;2.60;100.00;96226.19;4998228;28;21256;-72
2020/12/25 06:52:28;;;;;;;3.07;2.07;;;;;;;2.65;100.00;96231.03;4997755;28;20223;-72
2020/12/25 06:54:54;;;;;;;2.87;1.90;;;;;;;2.72;100.00;96225.16;4998940;28;20210;-72
2020/12/25 06:57:26;;;;;;;4.00;2.43;;;;;;;2.76;100.00;96231.75;4997899;28;20318;-72
2020/12/25 06:59:52;;;;;;;3.63;2.20;;;;;;;2.61;100.00;96238.25;4998318;28;20237;-72
2020/12/25 07:02:19;;;;;;;5.93;2.73;;;;;;;2.65;100.00;96238.81;4998140;28;20218;-72
2020/12/25 07:04:45;;;;;;;4.60;2.43;;;;;;;2.61;100.00;96243.47;4998230;28;20217;-72
2020/12/25 07:07:11;;;;;;;4.37;2.73;;;;;;;2.62;100.00;96244.28;4996818;28;20202;-72
2020/12/25 07:09:38;;;;;;;5.33;2.97;;;;;;;2.60;100.00;96251.38;4997684;28;20261;-72
2020/12/25 07:12:06;;;;;;;4.67;2.60;;;;;;;2.61;100.00;96253.84;4998135;28;20288;-72
2020/12/25 07:14:33;;;;;;;5.27;3.13;;;;;;;2.57;100.00;96257.66;4997840;28;20206;-72
2020/12/25 07:16:59;;;;;;;10.17;4.10;;;;;;;2.70;100.00;96250.47;4996613;28;20229;-72
2020/12/25 07:19:25;;;;;;;11.57;5.10;;;;;;;2.68;100.00;96257.59;4996870;28;20203;-72
2020/12/25 07:21:52;;;;;;;10.00;4.60;;;;;;;2.74;100.00;96264.88;4997969;28;20265;-73
2020/12/25 07:24:18;;;;;;;12.30;6.27;;;;;;;2.74;100.00;96270.09;4997579;28;20202;-72
2020/12/25 07:26:46;;;;;;;16.33;9.40;;;;;;;2.79;100.00;96267.91;4996673;28;21037;-72
2020/12/25 07:29:13;;;;;;;6.97;4.03;;;;;;;2.69;100.00;96264.44;4997489;28;20207;-72
2020/12/25 07:31:46;;;;;;;12.63;7.13;;;;;;;2.76;100.00;96268.19;4997365;28;20296;-72
2020/12/25 07:34:17;;;;;;;14.93;5.13;;;;;;;2.76;100.00;96267.34;4997278;28;20696;-72
2020/12/25 07:36:43;;;;;;;8.93;3.60;;;;;;;2.78;100.00;96268.88;4996835;28;20226;-72
2020/12/25 07:39:09;;;;;;;6.23;3.23;;;;;;;2.69;100.00;96269.63;4996593;28;20214;-72
2020/12/25 07:41:35;;;;;;;6.53;3.47;;;;;;;2.63;100.00;96275.34;4997161;28;20934;-72
2020/12/25 07:44:02;;;;;;;5.03;3.07;;;;;;;2.68;100.00;96270.59;4997347;28;20210;-72
2020/12/25 07:46:29;;;;;;;6.43;3.43;;;;;;;2.60;100.00;96267.81;4996553;28;20210;-72
2020/12/25 07:48:58;;;;;;;7.20;3.70;;;;;;;2.50;100.00;96266.91;4997267;28;21164;-72
2020/12/25 07:51:24;;;;;;;6.87;3.70;;;;;;;2.47;100.00;96267.19;4997624;28;20702;-73
2020/12/25 07:53:51;;;;;;;7.53;3.57;;;;;;;2.54;100.00;96267.50;4997973;28;20243;-73
2020/12/25 07:56:20;;;;;;;6.70;3.70;;;;;;;2.54;100.00;96264.91;4996187;28;20595;-73
2020/12/25 07:58:48;;;;;;;8.13;3.87;;;;;;;2.52;100.00;96267.63;4997652;28;20680;-73
2020/12/25 08:01:16;;;;;;;7.13;3.50;;;;;;;2.50;100.00;96272.13;4996652;28;20701;-73
2020/12/25 08:03:43;;;;;;;7.00;3.40;;;;;;;2.40;100.00;96266.03;4997058;28;20217;-72
2020/12/25 08:06:11;;;;;;;7.20;3.60;;;;;;;2.43;100.00;96271.00;4995132;28;20202;-73
2020/12/25 08:08:38;;;;;;;4.93;3.07;;;;;;;2.48;100.00;96279.25;4997377;28;20214;-73
2020/12/25 08:11:04;;;;;;;5.37;2.97;;;;;;;2.46;100.00;96283.75;4995053;28;20697;-73
2020/12/25 08:13:33;;;;;;;3.97;2.10;;;;;;;2.51;100.00;96284.19;4995687;28;20206;-74
2020/12/25 08:15:59;;;;;;;3.33;1.80;;;;;;;2.48;100.00;96292.25;4995490;28;20580;-72
2020/12/25 08:18:28;;;;;;;3.03;1.80;;;;;;;2.49;100.00;96311.25;4996583;28;20470;-73
2020/12/25 08:20:54;;;;;;;3.93;2.13;;;;;;;2.48;100.00;96305.25;4996396;28;20199;-71
2020/12/25 08:23:21;;;;;;;4.27;2.40;;;;;;;2.54;100.00;96304.72;4996835;28;20248;-73
2020/12/25 08:25:53;;;;;;;7.90;2.47;;;;;;;2.52;100.00;96305.78;4995051;28;20205;-72
2020/12/25 08:28:20;;;;;;;4.13;2.13;;;;;;;2.58;100.00;96302.69;4996475;28;20203;-71
2020/12/25 08:30:46;;;;;;;2.97;1.70;;;;;;;2.59;100.00;96314.75;4995408;28;20265;-72
2020/12/25 08:33:21;;;;;;;4.13;1.87;;;;;;;2.52;100.00;96313.59;5000014;28;20222;-71
2020/12/25 08:35:47;;;;;;;3.57;1.80;;;;;;;2.47;100.00;96313.19;5000400;28;20593;-72
2020/12/25 08:38:16;;;;;;;2.63;1.47;;;;;;;2.38;100.00;96315.69;5000949;28;20225;-72
2020/12/25 08:40:45;;;;;;;4.03;2.63;;;;;;;2.32;100.00;96324.84;5000927;28;20210;-71
2020/12/25 08:43:12;;;;;;;4.07;1.50;;;;;;;2.39;100.00;96322.56;5000430;28;21198;-71
2020/12/25 08:45:39;;;;;;;5.33;2.07;;;;;;;2.44;100.00;96327.25;5000410;28;20257;-73
2020/12/25 08:48:08;;;;;;;3.40;1.53;;;;;;;2.43;100.00;96325.59;5000989;28;20217;-72
2020/12/25 08:50:34;;;;;;;3.37;1.73;;;;;;;2.50;100.00;96324.13;5000606;28;20269;-73
2020/12/25 08:53:25;;;;;;;3.60;1.80;;;;;;;2.55;100.00;96329.78;5000610;28;21295;-71
2020/12/25 08:55:54;;;;;;;2.87;1.87;;;;;;;2.63;100.00;96323.97;4989624;28;21230;-73
2020/12/25 08:58:22;;;;;;;4.30;2.10;;;;;;;2.60;100.00;96335.44;5000381;28;20256;-73
2020/12/25 09:00:59;;;;;;;3.10;1.70;;;;;;;2.59;100.00;96338.97;5000281;28;20280;-73
2020/12/25 09:03:36;;;;;;;6.00;2.20;;;;;;;2.63;100.00;96336.97;4999890;28;20622;-73
2020/12/25 09:06:02;;;;;;;3.53;1.60;;;;;;;2.67;100.00;96341.81;4998846;28;20249;-72
2020/12/25 09:08:28;;;;;;;2.80;1.50;;;;;;;2.64;100.00;96347.22;4999807;28;20300;-73
2020/12/25 09:10:54;;;;;;;2.30;1.60;;;;;;;2.82;100.00;96355.31;5000262;28;20245;-71
2020/12/25 09:13:20;;;;;;;4.07;2.13;;;;;;;2.77;100.00;96352.25;5000075;28;20254;-73
2020/12/25 09:15:46;;;;;;;1.93;1.47;;;;;;;2.73;100.00;96362.09;4999856;28;20211;-71
2020/12/25 09:18:12;;;;;;;4.27;2.03;;;;;;;2.88;100.00;96359.97;5000646;28;20651;-73
2020/12/25 09:20:38;;;;;;;4.33;2.33;;;;;;;2.97;100.00;96359.25;4999831;28;20203;-72
2020/12/25 09:23:04;;;;;;;3.57;1.90;;;;;;;2.91;100.00;96363.16;4999897;28;20227;-72
2020/12/25 09:25:30;;;;;;;4.57;2.10;;;;;;;3.04;100.00;96368.97;4999210;28;20226;-71
2020/12/25 09:27:57;;;;;;;3.90;2.00;;;;;;;3.07;100.00;96366.16;4999851;28;20202;-72
2020/12/25 09:30:23;;;;;;;1.17;0.97;;;;;;;3.04;100.00;96367.22;4999926;28;20237;-73
2020/12/25 09:32:49;;;;;;;4.43;2.27;;;;;;;3.05;100.00;96375.84;5000020;28;20253;-73
2020/12/25 09:35:15;;;;;;;3.90;2.13;;;;;;;2.96;100.00;96374.00;4999271;28;20207;-71
2020/12/25 09:37:40;;;;;;;3.73;2.10;;;;;;;3.02;100.00;96378.72;4999474;28;20234;-72
2020/12/25 09:40:06;;;;;;;6.73;2.57;;;;;;;3.89;100.00;96377.97;4999384;28;20199;-70
2020/12/25 09:42:32;;;;;;;7.47;3.17;;;;;;;4.64;100.00;96376.44;4999072;28;20250;-72
2020/12/25 09:44:59;;;;;;;3.50;2.23;;;;;;;4.54;100.00;96380.81;4995821;28;20206;-72
2020/12/25 09:47:25;;;;;;;6.20;2.80;;;;;;;4.60;100.00;96375.06;4999410;28;20207;-73
2020/12/25 09:49:51;;;;;;;7.87;3.63;;;;;;;4.01;100.00;96387.34;4998060;28;20576;-70
2020/12/25 09:52:17;;;;;;;7.10;3.00;;;;;;;4.34;100.00;96384.38;4999160;28;20312;-73
2020/12/25 09:54:43;;;;;;;5.87;2.83;;;;;;;4.72;100.00;96373.94;4999097;28;20211;-71
2020/12/25 09:57:09;;;;;;;5.97;3.00;;;;;;;4.60;100.00;96375.88;4997743;28;20222;-72
2020/12/25 09:59:35;;;;;;;6.27;2.30;;;;;;;4.05;100.00;96387.88;4999251;28;20218;-72
2020/12/25 10:02:02;;;;;;;4.67;2.27;;;;;;;3.65;100.00;96390.53;4998274;28;20227;-72
2020/12/25 10:04:27;;;;;;;5.63;2.90;;;;;;;3.56;100.00;96389.66;4998723;28;20237;-73
2020/12/25 10:06:56;;;;;;;4.43;2.27;;;;;;;3.47;100.00;96385.25;4997714;28;20206;-71
2020/12/25 10:09:22;;;;;;;5.80;3.00;;;;;;;3.40;100.00;96387.56;4998486;28;20211;-71
2020/12/25 10:11:48;;;;;;;5.20;2.43;;;;;;;3.04;100.00;96392.41;4998858;28;20300;-73
2020/12/25 10:14:14;;;;;;;7.07;2.60;;;;;;;2.97;100.00;96399.09;4997606;28;21019;-73
2020/12/25 10:16:40;;;;;;;3.03;1.60;;;;;;;2.97;100.00;96391.28;4997080;28;20230;-73
2020/12/25 10:19:07;;;;;;;3.23;2.10;;;;;;;3.02;100.00;96384.72;4997805;28;21054;-73
2020/12/25 10:21:32;;;;;;;6.80;3.00;;;;;;;3.19;100.00;96391.13;4997293;28;20230;-72
2020/12/25 10:23:58;;;;;;;4.90;2.70;;;;;;;3.30;100.00;96394.47;4998322;28;20238;-73
2020/12/25 10:26:24;;;;;;;4.27;2.40;;;;;;;3.18;100.00;96386.88;4997368;28;20202;-72
2020/12/25 10:28:50;;;;;;;4.07;2.20;;;;;;;3.23;100.00;96388.16;4998361;28;20210;-72
2020/12/25 10:31:17;;;;;;;3.83;2.40;;;;;;;3.35;100.00;96388.91;4998283;28;20667;-73
2020/12/25 10:33:42;;;;;;;4.33;2.20;;;;;;;3.13;100.00;96394.25;4997873;28;20988;-73
2020/12/25 10:36:09;;;;;;;3.93;2.20;;;;;;;3.02;100.00;96394.34;4998742;28;20202;-73
2020/12/25 10:38:35;;;;;;;4.50;2.67;;;;;;;3.09;100.00;96395.44;4997346;28;20289;-73
2020/12/25 10:41:02;;;;;;;4.90;1.90;;;;;;;2.86;100.00;96403.53;4997031;28;20363;-72
2020/12/25 10:43:28;;;;;;;4.23;2.07;;;;;;;2.83;100.00;96391.59;4996707;28;20760;-72
2020/12/25 10:45:54;;;;;;;6.03;2.23;;;;;;;2.85;100.00;96394.06;4996798;28;20242;-71
2020/12/25 10:48:20;;;;;;;6.20;3.20;;;;;;;2.86;100.00;96390.53;4996306;28;20749;-70
2020/12/25 10:50:46;;;;;;;5.33;2.67;;;;;;;2.89;100.00;96390.25;4997423;28;20725;-71
2020/12/25 10:53:13;;;;;;;6.40;2.40;;;;;;;2.79;100.00;96387.59;4997262;28;20630;-70
2020/12/25 10:55:39;;;;;;;3.83;2.13;;;;;;;2.83;100.00;96391.59;4997238;28;20257;-71
2020/12/25 10:58:05;;;;;;;4.30;2.30;;;;;;;2.85;100.00;96392.31;4998312;28;20222;-71
2020/12/25 11:00:31;;;;;;;4.97;2.30;;;;;;;2.84;100.00;96401.06;4998110;28;20210;-70
2020/12/25 11:02:57;;;;;;;3.20;1.57;;;;;;;2.80;100.00;96398.81;4996425;28;20222;-71
2020/12/25 11:05:23;;;;;;;6.13;2.00;;;;;;;2.76;100.00;96400.88;4996665;28;20293;-71
2020/12/25 11:07:49;;;;;;;4.17;2.37;;;;;;;2.82;100.00;96394.34;4997468;28;20221;-71
2020/12/25 11:10:16;;;;;;;5.53;2.53;;;;;;;2.91;100.00;96389.19;4997789;28;20214;-72
2020/12/25 11:12:42;;;;;;;3.13;2.13;;;;;;;3.06;100.00;96390.50;4998498;28;20226;-71
2020/12/25 11:15:08;;;;;;;3.23;2.00;;;;;;;3.20;100.00;96392.78;4996787;28;20213;-72
2020/12/25 11:17:34;;;;;;;3.77;2.30;;;;;;;3.21;100.00;96390.06;4996039;28;20229;-72
2020/12/25 11:20:00;;;;;;;5.03;2.53;;;;;;;3.14;100.00;96395.91;4997424;28;20207;-71
2020/12/25 11:22:26;;;;;;;4.30;2.53;;;;;;;3.10;100.00;96391.91;4996410;28;20230;-72
2020/12/25 11:24:52;;;;;;;3.10;1.90;;;;;;;3.18;100.00;96394.69;4997207;28;20210;-72
2020/12/25 11:27:19;;;;;;;3.57;2.20;;;;;;;3.04;100.00;96392.41;4996984;28;20194;-72
2020/12/25 11:29:45;;;;;;;4.70;2.40;;;;;;;3.02;100.00;96389.13;4997913;28;21045;-72
2020/12/25 11:32:11;;;;;;;4.70;2.47;;;;;;;2.99;100.00;96399.78;4997353;28;20226;-72